Wetterdaten: Woche 16.12.13 - 22.12.13 (KW51)
Datum Zeit Temp. A. Feuchte A. Luftdruck Regen Wind Richtung Taupunkt Windchill Windben
16.12.2013 00:00 0,4 C 85 % 1033,9 hPa 0,0 l/m 0,1 km/h N -1,8 C 0,4 C 2,0 km/h
16.12.2013 01:00 -0,2 C 85 % 1034,3 hPa 0,0 l/m 0,0 km/h N -2,4 C -0,2 C 0,8 km/h
16.12.2013 02:00 -1,4 C 86 % 1034,5 hPa 0,0 l/m 0,0 km/h N -3,5 C -1,4 C 0,0 km/h
16.12.2013 03:00 -2,4 C 86 % 1034,8 hPa 0,0 l/m 0,0 km/h N -4,5 C -2,4 C 0,0 km/h
16.12.2013 04:00 -3,0 C 86 % 1035,2 hPa 0,0 l/m 0,0 km/h N -5,0 C -3,0 C 0,0 km/h
16.12.2013 05:00 -2,5 C 85 % 1035,4 hPa 0,0 l/m 0,0 km/h N -4,7 C -2,5 C 0,8 km/h
16.12.2013 06:00 -2,6 C 85 % 1035,7 hPa 0,0 l/m 0,2 km/h N -4,8 C -2,6 C 2,0 km/h
16.12.2013 07:00 -2,6 C 84 % 1035,9 hPa 0,0 l/m 0,1 km/h N -5,0 C -2,6 C 3,2 km/h
16.12.2013 08:00 -2,7 C 84 % 1036,3 hPa 0,0 l/m 0,1 km/h N -5,0 C -2,7 C 1,6 km/h
16.12.2013 09:00 -2,0 C 83 % 1036,5 hPa 0,0 l/m 0,5 km/h N -4,5 C -2,0 C 4,0 km/h
16.12.2013 10:00 -1,4 C 84 % 1036,7 hPa 0,0 l/m 1,0 km/h N -3,8 C -1,4 C 4,0 km/h
16.12.2013 11:00 -1,5 C 84 % 1036,6 hPa 0,0 l/m 1,7 km/h N -3,9 C -1,5 C 6,8 km/h
16.12.2013 12:00 -1,3 C 83 % 1036,2 hPa 0,0 l/m 2,9 km/h N -3,7 C -1,3 C 8,4 km/h
16.12.2013 13:00 -0,7 C 83 % 1036,1 hPa 0,0 l/m 3,4 km/h N -3,2 C -0,7 C 10,5 km/h
16.12.2013 14:00 -0,6 C 83 % 1035,9 hPa 0,0 l/m 3,2 km/h N -3,1 C -0,6 C 9,7 km/h
16.12.2013 15:00 -0,5 C 83 % 1036,0 hPa 0,0 l/m 3,3 km/h N -3,0 C -0,5 C 10,9 km/h
16.12.2013 16:00 -0,9 C 83 % 1036,2 hPa 0,0 l/m 4,0 km/h N -3,4 C -0,9 C 10,9 km/h
16.12.2013 17:00 -1,0 C 83 % 1036,6 hPa 0,0 l/m 2,9 km/h N -3,5 C -1,0 C 10,1 km/h
16.12.2013 18:00 -1,2 C 83 % 1036,9 hPa 0,0 l/m 2,6 km/h N -3,7 C -1,2 C 9,7 km/h
16.12.2013 19:00 -1,3 C 82 % 1037,1 hPa 0,0 l/m 3,3 km/h N -4,0 C -1,3 C 10,1 km/h
16.12.2013 20:00 -1,4 C 82 % 1037,1 hPa 0,0 l/m 3,0 km/h N -4,0 C -1,4 C 9,3 km/h
16.12.2013 21:00 -1,4 C 82 % 1037,0 hPa 0,0 l/m 2,3 km/h N -4,1 C -1,4 C 7,2 km/h
16.12.2013 22:00 -1,5 C 82 % 1036,8 hPa 0,0 l/m 2,2 km/h N -4,3 C -1,5 C 8,1 km/h
16.12.2013 23:00 -1,7 C 82 % 1036,7 hPa 0,0 l/m 2,4 km/h N -4,4 C -1,7 C 8,4 km/h
17.12.2013 00:00 -2,0 C 81 % 1036,5 hPa 0,0 l/m 2,1 km/h N -4,7 C -2,0 C 7,6 km/h
17.12.2013 01:00 -2,1 C 81 % 1036,3 hPa 0,0 l/m 2,9 km/h N -4,9 C -2,1 C 8,4 km/h
17.12.2013 02:00 -2,2 C 81 % 1036,4 hPa 0,0 l/m 3,7 km/h N -5,0 C -2,2 C 11,7 km/h
17.12.2013 03:00 -2,4 C 81 % 1036,0 hPa 0,0 l/m 4,4 km/h N -5,2 C -2,4 C 13,3 km/h
17.12.2013 04:00 -2,3 C 81 % 1035,9 hPa 0,0 l/m 4,0 km/h N -5,2 C -2,3 C 10,9 km/h
17.12.2013 05:00 -2,6 C 81 % 1035,7 hPa 0,0 l/m 3,5 km/h N -5,4 C -2,6 C 12,1 km/h
17.12.2013 06:00 -2,6 C 81 % 1035,6 hPa 0,0 l/m 3,3 km/h N -5,4 C -2,6 C 10,5 km/h
17.12.2013 07:00 -2,6 C 81 % 1035,5 hPa 0,0 l/m 4,8 km/h N -5,4 C -2,6 C 12,9 km/h
17.12.2013 08:00 -2,7 C 81 % 1035,5 hPa 0,0 l/m 5,7 km/h N -5,5 C -2,7 C 14,9 km/h
17.12.2013 09:00 -2,7 C 81 % 1035,4 hPa 0,0 l/m 5,1 km/h N -5,4 C -2,7 C 12,9 km/h
17.12.2013 10:00 -2,4 C 81 % 1035,1 hPa 0,0 l/m 4,9 km/h N -5,2 C -2,4 C 15,7 km/h
17.12.2013 11:00 -2,3 C 81 % 1034,7 hPa 0,0 l/m 3,9 km/h N -5,1 C -2,3 C 14,5 km/h
17.12.2013 12:00 -2,1 C 81 % 1034,3 hPa 0,0 l/m 4,0 km/h N -4,9 C -2,1 C 12,9 km/h
17.12.2013 13:00 -2,0 C 81 % 1033,8 hPa 0,0 l/m 3,8 km/h N -4,8 C -2,0 C 11,3 km/h
17.12.2013 14:00 -1,8 C 81 % 1033,4 hPa 0,0 l/m 3,4 km/h N -4,7 C -1,8 C 10,5 km/h
17.12.2013 15:00 -1,8 C 82 % 1033,3 hPa 0,0 l/m 3,3 km/h N -4,5 C -1,8 C 10,9 km/h
17.12.2013 16:00 -1,7 C 82 % 1033,3 hPa 0,0 l/m 3,7 km/h N -4,3 C -1,7 C 10,5 km/h
17.12.2013 17:00 -1,6 C 82 % 1033,3 hPa 0,0 l/m 2,3 km/h N -4,3 C -1,6 C 9,3 km/h
17.12.2013 18:00 -1,6 C 83 % 1033,2 hPa 0,0 l/m 4,4 km/h N -4,1 C -1,6 C 11,3 km/h
17.12.2013 19:00 -1,7 C 83 % 1033,0 hPa 0,0 l/m 3,0 km/h N -4,2 C -1,7 C 12,1 km/h
17.12.2013 20:00 -1,8 C 83 % 1032,8 hPa 0,0 l/m 2,9 km/h N -4,3 C -1,8 C 8,4 km/h
17.12.2013 21:00 -2,0 C 84 % 1032,7 hPa 0,0 l/m 2,3 km/h N -4,4 C -2,0 C 10,1 km/h
17.12.2013 22:00 -2,0 C 84 % 1032,5 hPa 0,0 l/m 1,4 km/h N -4,4 C -2,0 C 6,4 km/h
17.12.2013 23:00 -2,0 C 84 % 1032,4 hPa 0,0 l/m 1,2 km/h N -4,3 C -2,0 C 6,8 km/h
18.12.2013 00:00 -2,0 C 84 % 1032,0 hPa 0,0 l/m 2,2 km/h N -4,3 C -2,0 C 8,0 km/h
18.12.2013 01:00 -2,1 C 85 % 1031,6 hPa 0,0 l/m 2,2 km/h N -4,4 C -2,1 C 8,4 km/h
18.12.2013 02:00 -2,2 C 84 % 1031,3 hPa 0,0 l/m 2,5 km/h N -4,5 C -2,2 C 10,9 km/h
18.12.2013 03:00 -2,3 C 84 % 1030,8 hPa 0,0 l/m 3,3 km/h N -4,6 C -2,3 C 11,3 km/h
18.12.2013 04:00 -2,4 C 84 % 1030,2 hPa 0,0 l/m 3,1 km/h N -4,7 C -2,4 C 10,9 km/h
18.12.2013 05:00 -2,5 C 85 % 1030,1 hPa 0,0 l/m 1,5 km/h N -4,7 C -2,5 C 7,2 km/h
18.12.2013 06:00 -2,6 C 85 % 1030,3 hPa 0,0 l/m 1,1 km/h N -4,8 C -2,6 C 6,8 km/h
18.12.2013 07:00 -2,7 C 85 % 1030,6 hPa 0,0 l/m 2,0 km/h N -4,9 C -2,7 C 9,2 km/h
18.12.2013 08:00 -2,7 C 84 % 1030,9 hPa 0,0 l/m 1,8 km/h N -5,0 C -2,7 C 6,8 km/h
18.12.2013 09:00 -2,4 C 84 % 1030,5 hPa 0,0 l/m 3,1 km/h N -4,7 C -2,4 C 10,4 km/h
18.12.2013 10:00 -2,3 C 84 % 1030,5 hPa 0,0 l/m 2,3 km/h N -4,6 C -2,3 C 8,4 km/h
18.12.2013 11:00 -2,2 C 85 % 1030,2 hPa 0,0 l/m 2,4 km/h N -4,3 C -2,2 C 9,3 km/h
18.12.2013 12:00 -2,0 C 85 % 1029,6 hPa 0,0 l/m 1,4 km/h N -4,2 C -2,0 C 6,8 km/h
18.12.2013 13:00 -1,9 C 86 % 1029,3 hPa 0,0 l/m 0,4 km/h N -3,9 C -1,9 C 4,4 km/h
18.12.2013 14:00 -1,9 C 86 % 1028,7 hPa 0,0 l/m 1,1 km/h N -3,9 C -1,9 C 7,6 km/h
18.12.2013 15:00 -2,0 C 87 % 1028,6 hPa 0,0 l/m 2,1 km/h N -3,9 C -2,0 C 8,9 km/h
18.12.2013 16:00 -2,2 C 86 % 1028,4 hPa 0,0 l/m 2,0 km/h N -4,2 C -2,2 C 7,6 km/h
18.12.2013 17:00 -2,2 C 86 % 1028,2 hPa 0,0 l/m 2,4 km/h N -4,2 C -2,2 C 8,1 km/h
18.12.2013 18:00 -2,2 C 86 % 1028,1 hPa 0,0 l/m 2,0 km/h N -4,2 C -2,2 C 7,6 km/h
18.12.2013 19:00 -2,2 C 86 % 1027,6 hPa 0,0 l/m 4,0 km/h N -4,3 C -2,2 C 10,5 km/h
18.12.2013 20:00 -2,2 C 85 % 1027,1 hPa 0,0 l/m 3,2 km/h N -4,4 C -2,2 C 11,3 km/h
18.12.2013 21:00 -2,2 C 86 % 1026,4 hPa 0,0 l/m 5,2 km/h N -4,3 C -2,2 C 16,5 km/h
18.12.2013 22:00 -2,3 C 86 % 1025,8 hPa 0,0 l/m 4,5 km/h N -4,3 C -2,3 C 14,5 km/h
18.12.2013 23:00 -2,5 C 86 % 1025,3 hPa 0,0 l/m 4,6 km/h N -4,5 C -2,5 C 14,5 km/h
19.12.2013 00:00 -2,7 C 86 % 1024,5 hPa 0,0 l/m 6,1 km/h N -4,7 C -3,1 C 18,1 km/h
19.12.2013 01:00 -2,9 C 86 % 1023,6 hPa 0,0 l/m 7,5 km/h N -5,0 C -4,2 C 20,5 km/h
19.12.2013 02:00 -3,2 C 86 % 1023,1 hPa 0,0 l/m 8,1 km/h N -5,3 C -5,1 C 21,3 km/h
19.12.2013 03:00 -3,3 C 85 % 1022,3 hPa 0,0 l/m 5,8 km/h N -5,5 C -3,6 C 18,1 km/h
19.12.2013 04:00 -3,3 C 85 % 1021,4 hPa 0,0 l/m 5,3 km/h N -5,5 C -3,3 C 18,5 km/h
19.12.2013 05:00 -3,3 C 85 % 1020,6 hPa 0,0 l/m 6,7 km/h N -5,5 C -4,3 C 21,3 km/h
19.12.2013 06:00 -3,4 C 85 % 1020,1 hPa 0,0 l/m 6,2 km/h N -5,6 C -3,8 C 20,9 km/h
19.12.2013 07:00 -3,6 C 86 % 1019,9 hPa 0,0 l/m 6,0 km/h N -5,6 C -3,8 C 21,7 km/h
19.12.2013 08:00 -3,5 C 86 % 1019,6 hPa 0,0 l/m 5,3 km/h N -5,5 C -3,7 C 17,7 km/h
19.12.2013 09:00 -3,4 C 86 % 1019,8 hPa 0,0 l/m 6,0 km/h N -5,4 C -3,7 C 17,3 km/h
19.12.2013 10:00 -3,3 C 86 % 1019,5 hPa 0,0 l/m 3,7 km/h N -5,3 C -3,3 C 14,5 km/h
19.12.2013 11:00 -3,3 C 86 % 1019,4 hPa 0,0 l/m 2,2 km/h N -5,2 C -3,3 C 11,7 km/h
19.12.2013 12:00 -3,2 C 87 % 1019,1 hPa 0,0 l/m 2,8 km/h N -5,0 C -3,2 C 10,9 km/h
19.12.2013 13:00 -3,0 C 87 % 1019,1 hPa 0,0 l/m 2,6 km/h N -4,9 C -3,0 C 8,4 km/h
19.12.2013 14:00 -2,9 C 86 % 1019,3 hPa 0,0 l/m 0,5 km/h N -4,9 C -2,9 C 4,8 km/h
19.12.2013 15:00 -3,1 C 86 % 1019,8 hPa 0,0 l/m 0,3 km/h N -5,1 C -3,1 C 4,4 km/h
19.12.2013 16:00 -3,1 C 86 % 1020,4 hPa 0,0 l/m 0,6 km/h N -5,1 C -3,1 C 4,4 km/h
19.12.2013 17:00 -3,1 C 86 % 1021,1 hPa 0,0 l/m 0,3 km/h N -5,1 C -3,1 C 2,8 km/h
19.12.2013 18:00 -3,0 C 86 % 1021,1 hPa 0,0 l/m 1,3 km/h N -5,0 C -3,0 C 6,0 km/h
19.12.2013 19:00 -2,9 C 86 % 1021,3 hPa 0,0 l/m 0,2 km/h N -4,9 C -2,9 C 3,2 km/h
19.12.2013 20:00 -2,7 C 86 % 1021,5 hPa 0,0 l/m 0,1 km/h N -4,7 C -2,7 C 2,0 km/h
19.12.2013 21:00 -2,6 C 86 % 1021,6 hPa 0,0 l/m 0,0 km/h N -4,6 C -2,6 C 0,8 km/h
19.12.2013 22:00 -2,5 C 86 % 1021,8 hPa 0,0 l/m 0,3 km/h N -4,5 C -2,5 C 3,6 km/h
19.12.2013 23:00 -2,5 C 86 % 1022,5 hPa 0,0 l/m 0,3 km/h N -4,5 C -2,5 C 3,2 km/h
20.12.2013 00:00 -2,3 C 86 % 1022,5 hPa 0,0 l/m 0,2 km/h N -4,3 C -2,3 C 2,4 km/h
20.12.2013 01:00 -2,3 C 86 % 1022,5 hPa 0,0 l/m 1,0 km/h N -4,3 C -2,3 C 4,4 km/h
20.12.2013 02:00 -2,2 C 86 % 1023,0 hPa 0,0 l/m 0,7 km/h N -4,2 C -2,2 C 5,2 km/h
20.12.2013 03:00 -2,1 C 86 % 1023,1 hPa 0,0 l/m 1,6 km/h N -4,1 C -2,1 C 5,2 km/h
20.12.2013 04:00 -1,8 C 86 % 1023,1 hPa 0,0 l/m 1,6 km/h N -3,8 C -1,8 C 6,8 km/h
20.12.2013 05:00 -1,6 C 86 % 1023,3 hPa 0,0 l/m 2,4 km/h N -3,7 C -1,6 C 8,0 km/h
20.12.2013 06:00 -1,6 C 86 % 1023,6 hPa 0,0 l/m 1,9 km/h N -3,6 C -1,6 C 6,8 km/h
20.12.2013 07:00 -1,5 C 86 % 1024,1 hPa 0,0 l/m 2,0 km/h N -3,6 C -1,5 C 6,8 km/h
20.12.2013 08:00 -1,5 C 85 % 1024,8 hPa 0,0 l/m 1,3 km/h N -3,7 C -1,5 C 5,6 km/h
20.12.2013 09:00 -1,2 C 84 % 1025,4 hPa 0,0 l/m 1,3 km/h N -3,5 C -1,2 C 6,8 km/h
20.12.2013 10:00 -0,9 C 83 % 1026,0 hPa 0,0 l/m 0,2 km/h N -3,4 C -0,9 C 3,6 km/h
20.12.2013 11:00 -0,6 C 83 % 1025,9 hPa 0,0 l/m 0,3 km/h N -3,1 C -0,6 C 4,4 km/h
20.12.2013 12:00 -0,4 C 83 % 1025,9 hPa 0,0 l/m 0,2 km/h N -3,0 C -0,4 C 3,6 km/h
20.12.2013 13:00 -0,3 C 82 % 1026,4 hPa 0,0 l/m 0,2 km/h N -3,0 C -0,3 C 3,2 km/h
20.12.2013 14:00 -0,4 C 82 % 1027,0 hPa 0,0 l/m 0,2 km/h N -3,1 C -0,4 C 2,8 km/h
20.12.2013 15:00 -0,4 C 82 % 1028,2 hPa 0,0 l/m 0,0 km/h N -3,1 C -0,4 C 0,4 km/h
20.12.2013 16:00 -0,3 C 82 % 1029,0 hPa 0,0 l/m 0,1 km/h N -3,0 C -0,3 C 2,8 km/h
20.12.2013 17:00 -0,5 C 82 % 1029,7 hPa 0,0 l/m 0,3 km/h N -3,2 C -0,5 C 4,0 km/h
20.12.2013 18:00 -0,3 C 82 % 1030,7 hPa 0,0 l/m 0,9 km/h N -3,0 C -0,3 C 6,0 km/h
20.12.2013 19:00 1,3 C 81 % 1031,3 hPa 0,0 l/m 0,8 km/h N -1,6 C 1,3 C 8,4 km/h
20.12.2013 20:00 3,8 C 84 % 1032,1 hPa 0,3 l/m 9,3 km/h N 1,3 C 1,3 C 24,1 km/h
20.12.2013 21:00 4,6 C 82 % 1032,7 hPa 0,0 l/m 6,3 km/h N 1,8 C 3,7 C 20,5 km/h
20.12.2013 22:00 5,6 C 81 % 1032,7 hPa 0,0 l/m 8,3 km/h N 2,6 C 4,0 C 24,5 km/h
20.12.2013 23:00 6,4 C 79 % 1033,0 hPa 0,0 l/m 4,7 km/h N 3,0 C 6,2 C 18,1 km/h
21.12.2013 00:00 6,4 C 78 % 1033,2 hPa 0,0 l/m 8,6 km/h N 2,9 C 4,7 C 24,5 km/h
21.12.2013 01:00 6,2 C 77 % 1033,6 hPa 0,0 l/m 6,4 km/h N 2,5 C 5,1 C 19,3 km/h
21.12.2013 02:00 4,9 C 80 % 1034,6 hPa 0,0 l/m 1,3 km/h N 1,7 C 4,9 C 8,4 km/h
21.12.2013 03:00 3,8 C 79 % 1035,2 hPa 0,0 l/m 0,1 km/h N 0,6 C 3,8 C 2,0 km/h
21.12.2013 04:00 1,9 C 83 % 1035,4 hPa 0,0 l/m 0,1 km/h N -0,7 C 1,9 C 2,4 km/h
21.12.2013 05:00 0,1 C 84 % 1035,9 hPa 0,0 l/m 0,2 km/h N -2,2 C 0,1 C 2,8 km/h
21.12.2013 06:00 -0,9 C 86 % 1036,4 hPa 0,0 l/m 0,2 km/h N -3,1 C -0,9 C 2,0 km/h
21.12.2013 07:00 -1,8 C 86 % 1036,6 hPa 0,0 l/m 0,0 km/h N -3,8 C -1,8 C 0,0 km/h
21.12.2013 08:00 -2,0 C 86 % 1036,8 hPa 0,0 l/m 0,0 km/h N -4,1 C -2,0 C 0,0 km/h
21.12.2013 09:00 0,0 C 83 % 1036,8 hPa 0,0 l/m 0,0 km/h N -2,5 C 0,0 C 0,0 km/h
21.12.2013 10:00 3,2 C 83 % 1036,5 hPa 0,0 l/m 0,1 km/h N 0,5 C 3,2 C 2,4 km/h
21.12.2013 11:00 4,5 C 85 % 1036,1 hPa 0,0 l/m 0,2 km/h N 2,1 C 4,5 C 3,6 km/h
21.12.2013 12:00 5,4 C 82 % 1035,3 hPa 0,0 l/m 0,4 km/h N 2,5 C 5,4 C 4,0 km/h
21.12.2013 13:00 6,7 C 79 % 1034,0 hPa 0,0 l/m 1,8 km/h N 3,2 C 6,7 C 8,9 km/h
21.12.2013 14:00 6,8 C 76 % 1033,4 hPa 0,0 l/m 2,0 km/h N 2,9 C 6,8 C 7,6 km/h
21.12.2013 15:00 5,8 C 76 % 1033,3 hPa 0,0 l/m 0,1 km/h N 1,9 C 5,8 C 1,6 km/h
21.12.2013 16:00 3,3 C 79 % 1033,1 hPa 0,0 l/m 0,0 km/h N -0,1 C 3,3 C 0,4 km/h
21.12.2013 17:00 1,1 C 82 % 1033,3 hPa 0,0 l/m 0,0 km/h N -1,6 C 1,1 C 0,0 km/h
21.12.2013 18:00 -0,4 C 84 % 1033,5 hPa 0,0 l/m 0,0 km/h N -2,8 C -0,4 C 0,0 km/h
21.12.2013 19:00 -1,0 C 86 % 1033,4 hPa 0,0 l/m 0,0 km/h N -3,1 C -1,0 C 0,0 km/h
21.12.2013 20:00 -1,5 C 86 % 1033,1 hPa 0,0 l/m 0,0 km/h N -3,5 C -1,5 C 0,0 km/h
21.12.2013 21:00 -2,2 C 86 % 1032,7 hPa 0,0 l/m 0,0 km/h N -4,2 C -2,2 C 0,4 km/h
21.12.2013 22:00 -1,5 C 85 % 1032,2 hPa 0,0 l/m 0,0 km/h N -3,7 C -1,5 C 0,0 km/h
21.12.2013 23:00 -0,5 C 84 % 1031,9 hPa 0,0 l/m 0,0 km/h N -3,0 C -0,5 C 0,4 km/h
22.12.2013 00:00 0,2 C 83 % 1031,4 hPa 0,0 l/m 0,0 km/h N -2,3 C 0,2 C 0,4 km/h
22.12.2013 01:00 0,4 C 83 % 1031,1 hPa 0,0 l/m 0,0 km/h N -2,2 C 0,4 C 0,4 km/h
22.12.2013 02:00 0,5 C 83 % 1030,9 hPa 0,0 l/m 0,0 km/h N -2,1 C 0,5 C 0,8 km/h
22.12.2013 03:00 0,6 C 82 % 1030,6 hPa 0,0 l/m 0,0 km/h N -2,1 C 0,6 C 0,8 km/h
22.12.2013 04:00 0,8 C 82 % 1030,2 hPa 0,0 l/m 0,8 km/h N -1,9 C 0,8 C 4,8 km/h
22.12.2013 05:00 0,5 C 82 % 1030,2 hPa 0,0 l/m 0,9 km/h N -2,2 C 0,5 C 4,4 km/h
22.12.2013 06:00 0,4 C 81 % 1030,0 hPa 0,0 l/m 0,6 km/h N -2,4 C 0,4 C 4,0 km/h
22.12.2013 07:00 0,7 C 81 % 1029,9 hPa 0,3 l/m 0,6 km/h N -2,2 C 0,7 C 4,8 km/h
22.12.2013 08:00 0,8 C 81 % 1029,9 hPa 0,0 l/m 0,9 km/h N -2,1 C 0,8 C 6,8 km/h
22.12.2013 09:00 0,9 C 80 % 1030,0 hPa 0,0 l/m 0,8 km/h N -2,1 C 0,9 C 5,2 km/h
22.12.2013 10:00 1,3 C 80 % 1030,0 hPa 0,0 l/m 0,1 km/h N -1,8 C 1,3 C 2,4 km/h
22.12.2013 11:00 1,4 C 80 % 1029,8 hPa 0,0 l/m 0,2 km/h N -1,7 C 1,4 C 2,0 km/h
22.12.2013 12:00 1,8 C 79 % 1028,9 hPa 0,0 l/m 0,1 km/h N -1,5 C 1,8 C 2,0 km/h
22.12.2013 13:00 1,8 C 79 % 1028,3 hPa 0,0 l/m 1,9 km/h N -1,4 C 1,8 C 6,9 km/h
22.12.2013 14:00 1,8 C 79 % 1027,9 hPa 0,0 l/m 3,2 km/h N -1,5 C 1,8 C 9,7 km/h
22.12.2013 15:00 1,5 C 80 % 1027,8 hPa 0,0 l/m 3,3 km/h N -1,6 C 1,5 C 10,9 km/h
22.12.2013 16:00 1,3 C 80 % 1027,8 hPa 0,0 l/m 2,9 km/h N -1,8 C 1,3 C 9,7 km/h
22.12.2013 17:00 1,3 C 80 % 1027,6 hPa 0,0 l/m 2,8 km/h N -1,8 C 1,3 C 9,7 km/h
22.12.2013 18:00 1,3 C 80 % 1027,2 hPa 0,0 l/m 2,0 km/h N -1,8 C 1,3 C 8,4 km/h
22.12.2013 19:00 1,3 C 79 % 1027,2 hPa 0,0 l/m 2,4 km/h N -1,9 C 1,3 C 9,6 km/h
22.12.2013 20:00 1,3 C 79 % 1026,8 hPa 0,0 l/m 3,3 km/h N -1,9 C 1,3 C 10,5 km/h
22.12.2013 21:00 1,4 C 79 % 1026,4 hPa 0,0 l/m 2,3 km/h N -1,8 C 1,4 C 8,4 km/h
22.12.2013 22:00 1,4 C 79 % 1026,4 hPa 0,0 l/m 0,7 km/h N -1,8 C 1,4 C 5,2 km/h
22.12.2013 23:00 1,3 C 79 % 1026,3 hPa 0,0 l/m 0,7 km/h N -1,9 C 1,3 C 4,8 km/h
Min-Datum _ 19.12.13 21.12.13 19.12.13 - 16.12.13 - 19.12.13 19.12.13 16.12.13
_ Min-Zeit 07:15 14:00 13:00 - 00:00 - 06:15 05:15 01:15
Minimum _ -3,6 C 76 % 1019,0 hPa - 0,0 km/h - -5,6 C -6,4 C 0,0 km/h
Max-Datum _ 21.12.13 18.12.13 16.12.13 20.12.13 21.12.13 - 21.12.13 21.12.13 20.12.13
_ Max-Zeit 14:00 15:00 20:45 20:30 01:00 - 13:45 13:45 22:30
Maximum _ 7,0 C 87 % 1037,2 hPa 0,3 l/m 11,0 km/h
N
- 3,3 C 6,9 C 30,6 km/h
N
Durchschnitt _ -0,8 C 83 % 1030,1 hPa #0,5 l/m 2,1 km/h N -3,3 C -0,9 C 7,8 km/h